Sebastopol, CA (95472)

11:37 PM PDT on August 04, 2015 (GMT -0700)
West sebastopol | | Change Station
CLOSE
Current Station
Personal Weather Station
Location: Sebastopol, CA
Elevation: 171 ft
Nearby Weather Stations

Elev 171 ft 38.40 °N, 122.84 °W | Updated 7 minutes ago

Partly Cloudy
Partly Cloudy
57.2 °F
Feels Like 57.2 °F
N
0.0
Wind Variable Wind from SW

Today
High -- | Low -- °F
--% Chance of Precip.
Yesterday
High -- | Low -- °F
Precip. -- in
6:16 AM 8:18 PM
Waning Gibbous, 70% visible
Pressure 29.99 in
Visibility 10.0 miles
Clouds Clear
Dew Point 57 °F
Humidity 99%
Rainfall 0.00 in
Snow Depth Not available.
UV 0 out of 12
Pollen 4.90 out of 12
Air Quality Not available.
Flu Activity Not available.
METAR KSTS 050553Z AUTO 14003KT 10SM CLR 15/12 A3000 RMK AO2 RAE0457B17E41 SLP153 P0000 60000 T01500122 10228 20150 51012

More Conditions Fewer Conditions

Pressure 29.99 in
Visibility 10.0 miles
Clouds Clear
Dew Point 57 °F
Humidity 99%
Rainfall 0.00 in
Snow Depth Not available.
UV 0 out of 12
Pollen 4.90 out of 12
Air Quality Not available.
Flu Activity Not available.
METAR KSTS 050553Z AUTO 14003KT 10SM CLR 15/12 A3000 RMK AO2 RAE0457B17E41 SLP153 P0000 60000 T01500122 10228 20150 51012

More Conditions Fewer Conditions

10-Day Weather Forecast

×

Almanac

Astronomy

Aug. 04, 2015 Rise Set
Actual Time
Civil Twilight
Nautical Twilight
Astronomical Twilight
Moon
Length of Visible Light
Length of Day
Tomorrow will be .
, % of the Moon is Illuminated

Today's Extremes

State Highs State Lows

Community

WunderPhotos

Upload Photos

1,844,105 photos uploaded!

WunderBlogs® & News

Nearby

Air Quality

  Air Quality AQ Index Pollutant
Not available.

Snow Depth

Station Depth Elevation

Earthquake Activity

City Distance Mag. Time & Date
Minimum magnitude displayed is 2.5.

Coastal Water Temperatures

Place Temperature

Stations

Nearby Weather Stations

Station Location Temp. Windchill Dew Point Humidity Wind Precip. Elev Updated Type